Time,TemperatureF,DewpointF,PressureIn,WindDirection,WindDirectionDegrees,WindSpeedMPH,WindSpeedGustMPH,Humidity,HourlyPrecipIn,Conditions,Clouds,dailyrainin,SoftwareType,DateUTC
2013-06-28 00:03:00,72.5,39.3,29.77,WSW,245,2.0,3.0,30,0.00,CLR,CLR,0.00,WeatherDisplay:10.37,2013-06-28 04:03:00,
2013-06-28 00:18:00,72.3,40.8,29.77,WSW,239,1.0,2.0,32,0.00,CLR,CLR,0.00,WeatherDisplay:10.37,2013-06-28 04:18:00,
2013-06-28 00:33:00,72.3,40.0,29.77,WSW,238,0.0,2.0,31,0.00,CLR,CLR,0.00,WeatherDisplay:10.37,2013-06-28 04:33:00,
2013-06-28 00:48:00,72.0,40.5,29.77,West,260,1.0,3.0,32,0.00,CLR,CLR,0.00,WeatherDisplay:10.37,2013-06-28 04:48:00,
2013-06-28 01:03:00,71.8,40.3,29.77,WSW,258,1.0,3.0,32,0.00,CLR,CLR,0.00,WeatherDisplay:10.37,2013-06-28 05:03:00,
2013-06-28 01:18:00,71.4,40.8,29.77,WSW,246,1.0,3.0,33,0.00,CLR,CLR,0.00,WeatherDisplay:10.37,2013-06-28 05:18:00,
2013-06-28 01:33:00,71.2,41.4,29.77,West,259,2.0,3.0,34,0.00,CLR,CLR,0.00,WeatherDisplay:10.37,2013-06-28 05:33:00,
2013-06-28 01:48:00,71.1,42.0,29.77,SW,219,2.0,2.0,35,0.00,CLR,CLR,0.00,WeatherDisplay:10.37,2013-06-28 05:48:00,
2013-06-28 02:03:00,71.8,41.9,29.77,NNW,342,2.0,2.0,34,0.00,CLR,CLR,0.00,WeatherDisplay:10.37,2013-06-28 06:03:00,
2013-06-28 02:18:00,72.0,40.5,29.77,WSW,251,1.0,4.0,32,0.00,CLR,CLR,0.00,WeatherDisplay:10.37,2013-06-28 06:18:00,
2013-06-28 02:33:00,72.0,40.5,29.77,WSW,249,0.0,3.0,32,0.00,CLR,CLR,0.00,WeatherDisplay:10.37,2013-06-28 06:33:00,
2013-06-28 02:48:00,72.3,40.8,29.74,WSW,237,1.0,3.0,32,0.00,CLR,CLR,0.00,WeatherDisplay:10.37,2013-06-28 06:48:00,
2013-06-28 03:03:00,72.9,40.4,29.77,WNW,283,1.0,3.0,31,0.00,CLR,CLR,0.00,WeatherDisplay:10.37,2013-06-28 07:03:00,
2013-06-28 03:18:00,73.0,40.6,29.77,NW,321,2.0,3.0,31,0.00,CLR,CLR,0.00,WeatherDisplay:10.37,2013-06-28 07:18:00,
2013-06-28 03:33:00,73.6,68.1,29.77,WNW,284,2.0,4.0,83,0.00,CLR,CLR,0.00,WeatherDisplay:10.37,2013-06-28 07:33:00,
2013-06-28 03:34:00,73.4,66.9,29.77,West,276,1.0,6.0,80,0.00,BKN,BKN,0.00,WeatherDisplay:10.37,2013-06-28 07:34:00,
2013-06-28 03:35:00,73.4,66.9,29.77,West,276,1.0,0.0,80,0.00,BKN,BKN,0.00,WeatherDisplay:10.37,2013-06-28 07:35:00,
2013-06-28 03:36:00,73.4,66.9,29.77,West,276,1.0,0.0,80,0.00,BKN,BKN,0.00,WeatherDisplay:10.37,2013-06-28 07:36:00,
2013-06-28 03:37:00,73.4,66.9,29.77,West,276,1.0,0.0,80,0.00,BKN,BKN,0.00,WeatherDisplay:10.37,2013-06-28 07:37:00,
2013-06-28 03:38:00,73.4,66.9,29.77,West,276,1.0,0.0,80,0.00,BKN,BKN,0.00,WeatherDisplay:10.37,2013-06-28 07:38:00,
2013-06-28 03:39:00,73.4,66.9,29.77,West,276,1.0,0.0,80,0.00,BKN,BKN,0.00,WeatherDisplay:10.37,2013-06-28 07:39:00,
2013-06-28 03:40:00,73.4,66.9,29.77,West,276,1.0,0.0,80,0.00,BKN,BKN,0.00,WeatherDisplay:10.37,2013-06-28 07:40:00,
2013-06-28 03:41:00,73.4,66.9,29.77,West,276,1.0,0.0,80,0.00,BKN,BKN,0.00,WeatherDisplay:10.37,2013-06-28 07:41:00,
2013-06-28 03:42:00,73.4,66.9,29.77,West,276,1.0,0.0,80,0.00,BKN,BKN,0.00,WeatherDisplay:10.37,2013-06-28 07:42:00,
2013-06-28 03:43:00,73.4,66.9,29.77,West,276,1.0,0.0,80,0.00,BKN,BKN,0.00,WeatherDisplay:10.37,2013-06-28 07:43:00,
2013-06-28 03:44:00,73.4,66.9,29.77,West,276,1.0,0.0,80,0.00,BKN,BKN,0.00,WeatherDisplay:10.37,2013-06-28 07:44:00,
2013-06-28 03:45:00,73.4,66.9,29.77,West,276,1.0,0.0,80,0.00,BKN,BKN,0.00,WeatherDisplay:10.37,2013-06-28 07:45:00,
2013-06-28 03:46:00,73.4,66.9,29.77,West,276,1.0,0.0,80,0.00,BKN,BKN,0.00,WeatherDisplay:10.37,2013-06-28 07:46:00,
2013-06-28 03:47:00,73.4,66.9,29.77,West,276,1.0,0.0,80,0.00,BKN,BKN,0.00,WeatherDisplay:10.37,2013-06-28 07:47:00,
2013-06-28 03:48:00,73.4,66.9,29.77,West,276,1.0,0.0,80,0.00,BKN,BKN,0.00,WeatherDisplay:10.37,2013-06-28 07:48:00,
2013-06-28 08:34:00,73.6,68.1,29.77,WNW,292,4.9,4.9,83,0.00,CLR,,0.00,WeatherDisplay:10.37,2013-06-28 12:34:00,
2013-06-28 08:35:00,73.6,68.1,29.77,NW,315,5.9,5.9,83,0.00,CLR,,0.00,WeatherDisplay:10.37,2013-06-28 12:35:00,
2013-06-28 08:36:00,73.6,67.4,29.77,NW,315,5.8,5.8,81,0.00,CLR,,0.00,WeatherDisplay:10.37,2013-06-28 12:36:00,
2013-06-28 08:41:00,73.4,66.9,29.77,West,270,3.5,3.5,80,0.00,CLR,,0.00,WeatherDisplay:10.37,2013-06-28 12:41:00,
2013-06-28 08:46:00,73.4,66.9,29.77,SW,225,4.6,4.6,80,0.00,BKN,,0.00,WeatherDisplay:10.37,2013-06-28 12:46:00,
2013-06-28 08:51:00,73.2,67.0,29.77,SW,225,3.6,3.6,81,0.00,BKN,,0.00,WeatherDisplay:10.37,2013-06-28 12:51:00,
2013-06-28 08:56:00,73.4,67.2,29.77,SW,225,2.3,2.3,81,0.00,BKN,,0.00,WeatherDisplay:10.37,2013-06-28 12:56:00,
2013-06-28 09:01:00,73.4,66.9,29.77,SW,225,3.6,3.6,80,0.00,BKN,,0.00,WeatherDisplay:10.37,2013-06-28 13:01:00,
2013-06-28 09:07:00,73.4,67.2,29.77,West,270,2.4,2.4,81,0.00,BKN,,0.00,WeatherDisplay:10.37,2013-06-28 13:07:00,
2013-06-28 09:12:00,73.4,66.9,29.77,SW,225,2.2,0.0,80,0.00,BKN,,0.00,WeatherDisplay:10.37,2013-06-28 13:12:00,
2013-06-28 09:17:00,73.6,67.0,29.80,WNW,292,2.0,0.0,80,0.00,BKN,,0.00,WeatherDisplay:10.37,2013-06-28 13:17:00,
2013-06-28 09:22:00,73.9,67.4,29.80,SSE,158,2.6,2.6,80,0.00,BKN,,0.00,WeatherDisplay:10.37,2013-06-28 13:22:00,
2013-06-28 09:27:00,74.1,66.8,29.80,WSW,248,3.6,3.6,78,0.00,BKN,,0.00,WeatherDisplay:10.37,2013-06-28 13:27:00,
2013-06-28 09:33:00,74.5,67.5,29.74,SW,225,3.5,3.5,79,0.00,BKN,,0.00,WeatherDisplay:10.37,2013-06-28 13:33:00,
2013-06-28 09:38:00,74.5,67.2,29.74,SW,225,4.6,4.6,78,0.00,BKN,,0.00,WeatherDisplay:10.37,2013-06-28 13:38:00,
2013-06-28 09:43:00,74.7,67.3,29.74,SW,225,4.6,4.6,78,0.00,BKN,,0.00,WeatherDisplay:10.37,2013-06-28 13:43:00,
2013-06-28 09:48:00,74.8,67.5,29.77,SW,225,3.5,3.5,78,0.00,BKN,,0.00,WeatherDisplay:10.37,2013-06-28 13:48:00,
2013-06-28 09:53:00,74.8,67.5,29.77,SW,225,4.6,4.6,78,0.00,BKN,,0.00,WeatherDisplay:10.37,2013-06-28 13:53:00,
2013-06-28 09:59:00,75.6,67.8,29.77,WNW,292,4.3,4.3,77,0.00,BKN,,0.00,WeatherDisplay:10.37,2013-06-28 13:59:00,
2013-06-28 10:04:00,76.5,68.7,29.77,SSW,202,3.8,3.8,77,0.00,BKN,,0.00,WeatherDisplay:10.37,2013-06-28 14:04:00,
2013-06-28 10:09:00,76.5,68.3,29.77,SW,225,3.8,3.8,76,0.00,BKN,,0.00,WeatherDisplay:10.37,2013-06-28 14:09:00,
2013-06-28 10:14:00,76.8,68.7,29.77,NW,315,4.6,4.6,76,0.00,BKN,,0.00,WeatherDisplay:10.37,2013-06-28 14:14:00,
2013-06-28 10:19:00,77.0,68.5,29.77,North,0,3.6,3.6,75,0.00,SCT,,0.00,WeatherDisplay:10.37,2013-06-28 14:19:00,
2013-06-28 10:24:00,76.8,68.3,29.77,NNW,338,5.8,5.8,75,0.00,SCT,,0.00,WeatherDisplay:10.37,2013-06-28 14:24:00,
2013-06-28 10:30:00,77.2,68.6,29.77,North,0,3.5,3.5,75,0.00,SCT,,0.00,WeatherDisplay:10.37,2013-06-28 14:30:00,
2013-06-28 10:35:00,76.6,68.1,29.80,WSW,248,4.6,4.6,75,0.00,SCT,,0.00,WeatherDisplay:10.37,2013-06-28 14:35:00,
2013-06-28 10:40:00,77.2,68.6,29.80,West,270,1.6,0.0,75,0.00,SCT,,0.00,WeatherDisplay:10.37,2013-06-28 14:40:00,
2013-06-28 10:45:00,77.2,68.6,29.80,West,270,2.3,2.3,75,0.00,SCT,,0.00,WeatherDisplay:10.37,2013-06-28 14:45:00,
2013-06-28 10:51:00,77.4,68.8,29.77,West,270,3.5,3.5,75,0.00,SCT,,0.00,WeatherDisplay:10.37,2013-06-28 14:51:00,
2013-06-28 10:56:00,77.5,69.0,29.77,SW,225,4.6,4.6,75,0.00,SCT,,0.00,WeatherDisplay:10.37,2013-06-28 14:56:00,
2013-06-28 11:01:00,78.1,69.5,29.77,NNE,22,2.9,2.9,75,0.00,SCT,,0.00,WeatherDisplay:10.37,2013-06-28 15:01:00,
2013-06-28 11:06:00,79.3,70.7,29.77,NE,45,3.5,3.5,75,0.00,SCT,,0.00,WeatherDisplay:10.37,2013-06-28 15:06:00,
2013-06-28 11:11:00,79.3,69.5,29.77,West,270,3.5,3.5,72,0.00,SCT,,0.00,WeatherDisplay:10.37,2013-06-28 15:11:00,
2013-06-28 11:17:00,79.7,69.9,29.77,WNW,292,2.3,2.3,72,0.00,SCT,,0.00,WeatherDisplay:10.37,2013-06-28 15:17:00,
2013-06-28 11:22:00,81.0,71.1,29.77,NNW,338,2.3,2.3,72,0.00,SCT,,0.00,WeatherDisplay:10.37,2013-06-28 15:22:00,
2013-06-28 11:27:00,81.1,71.3,29.77,NE,45,3.5,3.5,72,0.00,SCT,,0.00,WeatherDisplay:10.37,2013-06-28 15:27:00,
2013-06-28 11:32:00,81.9,70.7,29.77,NE,45,4.6,4.6,69,0.00,SCT,,0.00,WeatherDisplay:10.37,2013-06-28 15:32:00,
2013-06-28 11:38:00,83.1,71.9,29.77,NW,315,3.5,3.5,69,0.00,SCT,,0.00,WeatherDisplay:10.37,2013-06-28 15:38:00,
2013-06-28 11:43:00,83.7,72.4,29.77,SW,225,3.5,3.5,69,0.00,SCT,,0.00,WeatherDisplay:10.37,2013-06-28 15:43:00,
2013-06-28 11:48:00,84.0,72.8,29.77,West,270,4.6,4.6,69,0.00,SCT,,0.00,WeatherDisplay:10.37,2013-06-28 15:48:00,
2013-06-28 11:53:00,83.7,72.4,29.77,North,0,4.6,4.6,69,0.00,SCT,,0.00,WeatherDisplay:10.37,2013-06-28 15:53:00,
2013-06-28 11:58:00,83.5,72.2,29.77,NE,45,3.5,3.5,69,0.00,SCT,,0.00,WeatherDisplay:10.37,2013-06-28 15:58:00,
2013-06-28 12:03:00,83.5,72.2,29.77,West,270,2.9,2.9,69,0.00,SCT,,0.00,WeatherDisplay:10.37,2013-06-28 16:03:00,
2013-06-28 12:08:00,83.5,72.2,29.77,WSW,248,3.5,3.6,69,0.00,SCT,,0.00,WeatherDisplay:10.37,2013-06-28 16:08:00,
2013-06-28 12:13:00,83.1,71.9,29.77,WSW,248,8.1,8.1,69,0.00,SCT,,0.00,WeatherDisplay:10.37,2013-06-28 16:13:00,
2013-06-28 12:18:00,83.5,72.2,29.80,West,270,5.8,5.8,69,0.00,CLR,,0.00,WeatherDisplay:10.37,2013-06-28 16:18:00,
2013-06-28 12:24:00,84.6,72.8,29.80,SW,225,6.0,6.0,68,0.00,CLR,,0.00,WeatherDisplay:10.37,2013-06-28 16:24:00,
2013-06-28 12:29:00,85.3,73.5,29.80,SSW,202,3.8,3.8,68,0.00,CLR,,0.00,WeatherDisplay:10.37,2013-06-28 16:29:00,
2013-06-28 12:34:00,86.2,74.4,29.80,North,0,4.6,4.6,68,0.00,CLR,,0.00,WeatherDisplay:10.37,2013-06-28 16:34:00,
2013-06-28 12:39:00,84.9,73.2,29.80,North,0,6.9,6.9,68,0.00,CLR,,0.00,WeatherDisplay:10.37,2013-06-28 16:39:00,
2013-06-28 12:44:00,86.7,74.9,29.80,West,270,3.5,3.5,68,0.00,CLR,,0.00,WeatherDisplay:10.37,2013-06-28 16:44:00,
2013-06-28 12:49:00,86.4,74.5,29.77,North,0,6.9,6.9,68,0.00,CLR,,0.00,WeatherDisplay:10.37,2013-06-28 16:49:00,
2013-06-28 12:54:00,87.4,75.6,29.77,South,180,4.6,4.6,68,0.00,CLR,,0.00,WeatherDisplay:10.37,2013-06-28 16:54:00,
2013-06-28 12:59:00,86.7,74.9,29.77,WNW,292,8.1,8.1,68,0.00,CLR,,0.00,WeatherDisplay:10.37,2013-06-28 16:59:00,
2013-06-28 13:04:00,88.2,76.3,29.77,North,0,3.5,3.5,68,0.00,CLR,,0.00,WeatherDisplay:10.37,2013-06-28 17:04:00,
2013-06-28 13:09:00,87.3,75.4,29.77,South,180,5.8,5.8,68,0.00,CLR,,0.00,WeatherDisplay:10.37,2013-06-28 17:09:00,
2013-06-28 13:14:00,86.4,74.5,29.77,WSW,248,5.9,5.9,68,0.00,CLR,,0.00,WeatherDisplay:10.37,2013-06-28 17:14:00,
2013-06-28 13:19:00,88.0,76.1,29.77,West,270,4.6,4.6,68,0.00,CLR,,0.00,WeatherDisplay:10.37,2013-06-28 17:19:00,
2013-06-28 13:24:00,88.3,76.4,29.77,North,0,4.6,4.6,68,0.00,CLR,,0.00,WeatherDisplay:10.37,2013-06-28 17:24:00,
2013-06-28 13:29:00,89.1,77.1,29.77,West,270,3.5,3.5,68,0.00,CLR,,0.00,WeatherDisplay:10.37,2013-06-28 17:29:00,
2013-06-28 13:34:00,88.3,76.4,29.74,NW,315,5.9,5.9,68,0.00,CLR,,0.00,WeatherDisplay:10.37,2013-06-28 17:34:00,
2013-06-28 13:39:00,88.3,76.4,29.74,NW,315,5.8,5.8,68,0.00,CLR,,0.00,WeatherDisplay:10.37,2013-06-28 17:39:00,
2013-06-28 13:44:00,88.3,76.4,29.74,East,90,6.0,6.0,68,0.00,CLR,,0.00,WeatherDisplay:10.37,2013-06-28 17:44:00,
2013-06-28 13:49:00,86.9,75.1,29.74,WSW,248,8.1,8.1,68,0.00,CLR,,0.00,WeatherDisplay:10.37,2013-06-28 17:49:00,
2013-06-28 13:54:00,87.8,75.9,29.74,SW,225,2.3,2.6,68,0.00,CLR,,0.00,WeatherDisplay:10.37,2013-06-28 17:54:00,
2013-06-28 13:59:00,88.0,76.1,29.74,West,270,7.4,7.4,68,0.00,CLR,,0.00,WeatherDisplay:10.37,2013-06-28 17:59:00,
2013-06-28 14:04:00,88.2,76.3,29.74,West,270,8.5,8.5,68,0.00,CLR,,0.00,WeatherDisplay:10.37,2013-06-28 18:04:00,
2013-06-28 14:09:00,88.7,76.8,29.74,NE,45,4.6,4.6,68,0.00,CLR,,0.00,WeatherDisplay:10.37,2013-06-28 18:09:00,
2013-06-28 14:14:00,88.0,76.1,29.74,West,270,4.9,4.9,68,0.00,CLR,,0.00,WeatherDisplay:10.37,2013-06-28 18:14:00,
2013-06-28 14:19:00,89.2,77.3,29.71,West,270,4.6,4.6,68,0.00,CLR,,0.00,WeatherDisplay:10.37,2013-06-28 18:19:00,
2013-06-28 14:24:00,90.1,77.7,29.71,NE,45,6.2,6.2,67,0.00,CLR,,0.00,WeatherDisplay:10.37,2013-06-28 18:24:00,
2013-06-28 14:29:00,89.6,77.2,29.71,West,270,4.0,4.3,67,0.00,CLR,,0.00,WeatherDisplay:10.37,2013-06-28 18:29:00,
2013-06-28 14:34:00,89.6,77.2,29.71,NW,315,4.6,4.6,67,0.00,CLR,,0.00,WeatherDisplay:10.37,2013-06-28 18:34:00,
2013-06-28 14:39:00,89.4,77.5,29.71,NW,315,5.8,5.8,68,0.00,CLR,,0.00,WeatherDisplay:10.37,2013-06-28 18:39:00,
2013-06-28 14:44:00,90.1,77.7,29.71,North,0,6.4,6.4,67,0.00,CLR,,0.00,WeatherDisplay:10.37,2013-06-28 18:44:00,
2013-06-28 14:49:00,88.7,76.8,29.68,WNW,292,5.8,5.8,68,0.00,FEW,,0.00,WeatherDisplay:10.37,2013-06-28 18:49:00,
2013-06-28 14:54:00,89.4,77.5,29.68,West,270,7.1,7.1,68,0.00,FEW,,0.00,WeatherDisplay:10.37,2013-06-28 18:54:00,
2013-06-28 14:59:00,89.4,77.5,29.68,WNW,292,4.6,4.6,68,0.00,FEW,,0.00,WeatherDisplay:10.37,2013-06-28 18:59:00,
2013-06-28 15:04:00,90.3,77.9,29.68,West,270,3.5,3.5,67,0.00,FEW,,0.00,WeatherDisplay:10.37,2013-06-28 19:04:00,
2013-06-28 15:09:00,90.0,77.5,29.68,West,270,7.8,7.8,67,0.00,FEW,,0.00,WeatherDisplay:10.37,2013-06-28 19:09:00,
2013-06-28 15:14:00,89.4,77.5,29.68,West,270,5.8,5.8,68,0.00,FEW,,0.00,WeatherDisplay:10.37,2013-06-28 19:14:00,
2013-06-28 15:19:00,88.5,76.6,29.71,NW,315,6.0,6.0,68,0.00,FEW,,0.00,WeatherDisplay:10.37,2013-06-28 19:19:00,
2013-06-28 15:24:00,88.9,76.9,29.71,North,0,4.6,4.6,68,0.00,FEW,,0.00,WeatherDisplay:10.37,2013-06-28 19:24:00,
2013-06-28 15:29:00,90.1,77.7,29.71,North,0,6.9,6.9,67,0.00,FEW,,0.00,WeatherDisplay:10.37,2013-06-28 19:29:00,
2013-06-28 15:34:00,90.7,78.2,29.71,North,0,4.6,4.6,67,0.00,FEW,,0.00,WeatherDisplay:10.37,2013-06-28 19:34:00,
2013-06-28 15:39:00,89.8,77.4,29.71,SW,225,6.9,6.9,67,0.00,FEW,,0.00,WeatherDisplay:10.37,2013-06-28 19:39:00,
2013-06-28 15:44:00,88.7,76.8,29.71,South,180,5.8,5.8,68,0.00,FEW,,0.00,WeatherDisplay:10.37,2013-06-28 19:44:00,
2013-06-28 15:49:00,89.8,77.4,29.71,NW,315,5.8,5.8,67,0.00,FEW,,0.00,WeatherDisplay:10.37,2013-06-28 19:49:00,
2013-06-28 15:54:00,89.2,77.3,29.71,WSW,248,7.4,7.4,68,0.00,FEW,,0.00,WeatherDisplay:10.37,2013-06-28 19:54:00,
2013-06-28 15:59:00,89.2,77.3,29.71,NE,45,5.8,5.8,68,0.00,FEW,,0.00,WeatherDisplay:10.37,2013-06-28 19:59:00,
2013-06-28 16:04:00,89.2,77.3,29.71,SW,225,8.1,8.1,68,0.00,FEW,,0.00,WeatherDisplay:10.37,2013-06-28 20:04:00,
2013-06-28 16:09:00,89.6,77.2,29.71,West,270,5.8,5.8,67,0.00,FEW,,0.00,WeatherDisplay:10.37,2013-06-28 20:09:00,
2013-06-28 16:14:00,88.9,76.9,29.71,SW,225,9.2,9.2,68,0.00,FEW,,0.00,WeatherDisplay:10.37,2013-06-28 20:14:00,
2013-06-28 16:19:00,88.3,76.4,29.68,East,90,5.8,5.8,68,0.00,FEW,,0.00,WeatherDisplay:10.37,2013-06-28 20:19:00,
2013-06-28 16:24:00,87.4,75.6,29.68,NW,315,8.1,8.1,68,0.00,FEW,,0.00,WeatherDisplay:10.37,2013-06-28 20:24:00,
2013-06-28 16:28:00,88.7,76.8,29.68,West,270,5.8,5.8,68,0.00,FEW,,0.00,WeatherDisplay:10.37,2013-06-28 20:28:00,
2013-06-28 16:33:00,89.4,77.5,29.71,WSW,248,5.8,5.8,68,0.00,FEW,,0.00,WeatherDisplay:10.37,2013-06-28 20:33:00,
2013-06-28 16:38:00,88.3,76.4,29.71,SE,135,9.2,9.2,68,0.00,FEW,,0.00,WeatherDisplay:10.37,2013-06-28 20:38:00,
2013-06-28 16:43:00,88.3,76.4,29.71,West,270,5.8,5.8,68,0.00,FEW,,0.00,WeatherDisplay:10.37,2013-06-28 20:43:00,
2013-06-28 16:48:00,87.8,75.9,29.68,West,270,5.8,5.8,68,0.00,FEW,,0.00,WeatherDisplay:10.37,2013-06-28 20:48:00,
2013-06-28 16:53:00,87.1,75.2,29.68,North,0,4.0,4.0,68,0.00,FEW,,0.00,WeatherDisplay:10.37,2013-06-28 20:53:00,
2013-06-28 16:58:00,87.6,75.7,29.68,North,0,5.8,5.8,68,0.00,FEW,,0.00,WeatherDisplay:10.37,2013-06-28 20:58:00,
2013-06-28 17:03:00,88.5,76.6,29.68,East,90,4.6,4.6,68,0.00,CLR,,0.00,WeatherDisplay:10.37,2013-06-28 21:03:00,
2013-06-28 17:08:00,88.7,76.8,29.68,West,270,2.3,2.3,68,0.00,CLR,,0.00,WeatherDisplay:10.37,2013-06-28 21:08:00,
2013-06-28 17:13:00,88.3,76.4,29.68,West,270,6.9,6.9,68,0.00,CLR,,0.00,WeatherDisplay:10.37,2013-06-28 21:13:00,
2013-06-28 17:18:00,89.1,77.1,29.68,North,0,3.5,3.5,68,0.00,CLR,,0.00,WeatherDisplay:10.37,2013-06-28 21:18:00,
2013-06-28 17:23:00,88.0,76.1,29.68,West,270,5.4,5.4,68,0.00,CLR,,0.00,WeatherDisplay:10.37,2013-06-28 21:23:00,
2013-06-28 17:28:00,87.6,75.7,29.68,NW,315,3.5,3.5,68,0.00,CLR,,0.00,WeatherDisplay:10.37,2013-06-28 21:28:00,
2013-06-28 17:33:00,88.2,76.3,29.68,NW,315,5.8,5.8,68,0.00,CLR,,0.00,WeatherDisplay:10.37,2013-06-28 21:33:00,
2013-06-28 17:38:00,87.3,75.4,29.68,West,270,3.6,3.6,68,0.00,CLR,,0.00,WeatherDisplay:10.37,2013-06-28 21:38:00,
2013-06-28 17:43:00,87.3,75.4,29.68,NNE,22,4.0,4.0,68,0.00,CLR,,0.00,WeatherDisplay:10.37,2013-06-28 21:43:00,
2013-06-28 17:48:00,88.2,76.3,29.68,West,270,2.9,2.9,68,0.00,CLR,,0.00,WeatherDisplay:10.37,2013-06-28 21:48:00,
2013-06-28 17:53:00,87.8,75.9,29.68,NW,315,4.3,4.3,68,0.00,CLR,,0.00,WeatherDisplay:10.37,2013-06-28 21:53:00,
2013-06-28 17:58:00,85.5,73.7,29.68,NW,315,5.8,5.8,68,0.00,CLR,,0.00,WeatherDisplay:10.37,2013-06-28 21:58:00,
2013-06-28 18:03:00,85.1,73.3,29.68,NNW,338,2.3,2.3,68,0.00,CLR,,0.00,WeatherDisplay:10.37,2013-06-28 22:03:00,
2013-06-28 18:08:00,84.4,72.7,29.68,West,270,2.3,2.3,68,0.00,CLR,,0.00,WeatherDisplay:10.37,2013-06-28 22:08:00,
2013-06-28 18:13:00,83.3,72.1,29.68,NW,315,4.6,4.6,69,0.00,CLR,,0.00,WeatherDisplay:10.37,2013-06-28 22:13:00,
2013-06-28 18:18:00,83.3,72.1,29.65,NE,45,2.3,2.3,69,0.00,OVC,,0.00,WeatherDisplay:10.37,2013-06-28 22:18:00,
2013-06-28 18:23:00,83.5,72.2,29.65,NE,45,2.3,2.3,69,0.00,OVC,,0.00,WeatherDisplay:10.37,2013-06-28 22:23:00,
2013-06-28 18:28:00,83.5,72.2,29.65,NE,45,3.5,3.5,69,0.00,OVC,,0.00,WeatherDisplay:10.37,2013-06-28 22:28:00,
2013-06-28 18:33:00,83.5,72.2,29.68,SW,225,2.6,0.0,69,0.00,OVC,,0.00,WeatherDisplay:10.37,2013-06-28 22:33:00,
2013-06-28 18:38:00,83.5,72.2,29.68,West,270,4.6,4.6,69,0.00,OVC,,0.00,WeatherDisplay:10.37,2013-06-28 22:38:00,
2013-06-28 18:43:00,83.7,72.4,29.68,West,270,4.6,4.6,69,0.00,OVC,,0.00,WeatherDisplay:10.37,2013-06-28 22:43:00,
2013-06-28 18:48:00,83.5,72.2,29.65,West,270,3.5,3.5,69,0.00,OVC,,0.00,WeatherDisplay:10.37,2013-06-28 22:48:00,
2013-06-28 18:53:00,83.5,72.2,29.65,West,270,2.3,2.3,69,0.00,OVC,,0.00,WeatherDisplay:10.37,2013-06-28 22:53:00,
2013-06-28 18:58:00,83.3,72.1,29.65,NW,315,3.6,3.6,69,0.00,OVC,,0.00,WeatherDisplay:10.37,2013-06-28 22:58:00,
2013-06-28 19:03:00,82.9,71.7,29.68,West,270,2.3,2.3,69,0.00,CLR,,0.00,WeatherDisplay:10.37,2013-06-28 23:03:00,
2013-06-28 19:08:00,82.6,71.4,29.68,WNW,292,2.9,2.9,69,0.00,CLR,,0.00,WeatherDisplay:10.37,2013-06-28 23:08:00,
2013-06-28 19:13:00,82.6,71.4,29.68,WSW,248,5.8,5.8,69,0.00,CLR,,0.00,WeatherDisplay:10.37,2013-06-28 23:13:00,
2013-06-28 19:18:00,82.4,71.2,29.68,NW,315,2.3,2.3,69,0.00,CLR,,0.00,WeatherDisplay:10.37,2013-06-28 23:18:00,
2013-06-28 19:23:00,82.4,71.2,29.68,West,270,2.3,2.3,69,0.00,CLR,,0.00,WeatherDisplay:10.37,2013-06-28 23:23:00,
2013-06-28 19:28:00,82.2,71.0,29.68,NW,315,1.6,1.6,69,0.00,CLR,,0.00,WeatherDisplay:10.37,2013-06-28 23:28:00,
2013-06-28 19:33:00,82.0,70.9,29.65,West,270,2.4,2.4,69,0.00,CLR,,0.00,WeatherDisplay:10.37,2013-06-28 23:33:00,
2013-06-28 19:38:00,81.5,70.3,29.65,NNE,22,2.4,2.9,69,0.00,CLR,,0.00,WeatherDisplay:10.37,2013-06-28 23:38:00,
2013-06-28 19:43:00,81.5,70.3,29.65,West,270,5.8,5.8,69,0.00,CLR,,0.00,WeatherDisplay:10.37,2013-06-28 23:43:00,
2013-06-28 19:48:00,80.8,69.7,29.68,East,90,3.3,3.3,69,0.00,CLR,,0.00,WeatherDisplay:10.37,2013-06-28 23:48:00,
2013-06-28 19:53:00,81.0,69.8,29.68,East,90,1.2,0.0,69,0.00,CLR,,0.00,WeatherDisplay:10.37,2013-06-28 23:53:00,
2013-06-28 19:58:00,80.6,69.5,29.68,South,180,2.6,2.6,69,0.00,CLR,,0.00,WeatherDisplay:10.37,2013-06-28 23:58:00,
2013-06-28 20:03:00,80.4,69.7,29.65,East,90,2.3,2.3,70,0.00,FEW,,0.00,WeatherDisplay:10.37,2013-06-29 00:03:00,
2013-06-28 20:08:00,80.2,69.6,29.65,NE,45,1.2,0.0,70,0.00,FEW,,0.00,WeatherDisplay:10.37,2013-06-29 00:08:00,
2013-06-28 20:13:00,80.1,69.4,29.65,SW,225,2.4,2.4,70,0.00,FEW,,0.00,WeatherDisplay:10.37,2013-06-29 00:13:00,
2013-06-28 20:18:00,79.9,69.2,29.65,East,90,3.5,3.5,70,0.00,FEW,,0.00,WeatherDisplay:10.37,2013-06-29 00:18:00,
2013-06-28 20:24:00,79.5,68.9,29.65,East,90,2.3,2.3,70,0.00,FEW,,0.00,WeatherDisplay:10.37,2013-06-29 00:24:00,
2013-06-28 20:29:00,79.3,68.7,29.65,North,0,4.6,4.6,70,0.00,FEW,,0.00,WeatherDisplay:10.37,2013-06-29 00:29:00,
2013-06-28 20:33:00,68.0,25.4,29.68,SW,225,0.0,1.0,20,0.00,CLR,CLR,0.00,WeatherDisplay:10.37,2013-06-29 00:33:00,
2013-06-28 20:34:00,79.0,68.4,29.65,SW,225,0.0,0.0,70,0.00,FEW,,0.00,WeatherDisplay:10.37,2013-06-29 00:34:00,
2013-06-28 20:39:00,78.6,68.0,29.65,West,270,2.3,2.3,70,0.00,FEW,,0.00,WeatherDisplay:10.37,2013-06-29 00:39:00,
2013-06-28 20:44:00,78.3,67.7,29.65,South,180,2.3,2.3,70,0.00,FEW,,0.00,WeatherDisplay:10.37,2013-06-29 00:44:00,
2013-06-28 20:48:00,67.8,25.2,29.65,SW,225,0.0,1.0,20,0.00,CLR,CLR,0.00,WeatherDisplay:10.37,2013-06-29 00:48:00,
2013-06-28 20:49:00,77.9,67.3,29.65,South,180,1.2,1.4,70,0.00,FEW,,0.00,WeatherDisplay:10.37,2013-06-29 00:49:00,
2013-06-28 20:54:00,77.5,67.0,29.65,SW,225,0.0,0.0,70,0.00,FEW,,0.00,WeatherDisplay:10.37,2013-06-29 00:54:00,
2013-06-28 20:59:00,77.2,66.6,29.65,SW,225,0.0,0.0,70,0.00,FEW,,0.00,WeatherDisplay:10.37,2013-06-29 00:59:00,
2013-06-28 21:03:00,68.2,25.5,29.65,WSW,240,1.0,2.0,20,0.00,CLR,CLR,0.00,WeatherDisplay:10.37,2013-06-29 01:03:00,
2013-06-28 21:04:00,77.0,66.5,29.65,West,270,1.2,0.0,70,0.00,CLR,,0.00,WeatherDisplay:10.37,2013-06-29 01:04:00,
2013-06-28 21:09:00,76.6,66.1,29.65,SE,135,0.0,0.0,70,0.00,CLR,,0.00,WeatherDisplay:10.37,2013-06-29 01:09:00,
2013-06-28 21:14:00,76.3,65.8,29.65,SE,135,0.0,0.0,70,0.00,CLR,,0.00,WeatherDisplay:10.37,2013-06-29 01:14:00,
2013-06-28 21:18:00,68.0,25.4,29.65,NNW,339,0.0,2.0,20,0.00,CLR,CLR,0.00,WeatherDisplay:10.37,2013-06-29 01:18:00,
2013-06-28 21:19:00,75.9,65.4,29.68,SE,135,0.0,0.0,70,0.00,CLR,,0.00,WeatherDisplay:10.37,2013-06-29 01:19:00,
2013-06-28 21:24:00,75.7,65.3,29.68,North,0,0.0,0.0,70,0.00,CLR,,0.00,WeatherDisplay:10.37,2013-06-29 01:24:00,
2013-06-28 21:29:00,75.6,65.1,29.68,North,0,1.4,1.4,70,0.00,CLR,,0.00,WeatherDisplay:10.37,2013-06-29 01:29:00,
2013-06-28 21:33:00,67.8,21.4,29.65,West,270,0.0,1.0,17,0.00,CLR,CLR,0.00,WeatherDisplay:10.37,2013-06-29 01:33:00,
2013-06-28 21:34:00,75.4,64.9,29.68,North,0,0.0,0.0,70,0.00,CLR,,0.00,WeatherDisplay:10.37,2013-06-29 01:34:00,
2013-06-28 21:39:00,75.4,64.9,29.68,North,0,0.0,0.0,70,0.00,CLR,,0.00,WeatherDisplay:10.37,2013-06-29 01:39:00,
2013-06-28 21:44:00,75.2,64.7,29.68,North,0,0.0,0.0,70,0.00,CLR,,0.00,WeatherDisplay:10.37,2013-06-29 01:44:00,
2013-06-28 21:48:00,66.7,24.3,29.65,West,270,0.0,0.0,20,0.00,CLR,CLR,0.00,WeatherDisplay:10.37,2013-06-29 01:48:00,
2013-06-28 21:49:00,75.0,65.0,29.68,North,0,1.2,0.0,71,0.00,CLR,,0.00,WeatherDisplay:10.37,2013-06-29 01:49:00,
2013-06-28 21:54:00,74.8,64.8,29.68,North,0,0.0,0.0,71,0.00,CLR,,0.00,WeatherDisplay:10.37,2013-06-29 01:54:00,
2013-06-28 21:59:00,74.7,64.6,29.68,NNE,22,0.9,0.0,71,0.00,CLR,,0.00,WeatherDisplay:10.37,2013-06-29 01:59:00,
2013-06-28 22:03:00,66.6,24.2,29.65,WNW,293,0.0,0.0,20,0.00,CLR,CLR,0.00,WeatherDisplay:10.37,2013-06-29 02:03:00,
2013-06-28 22:04:00,74.5,64.5,29.68,NNE,22,2.3,2.3,71,0.00,CLR,,0.00,WeatherDisplay:10.37,2013-06-29 02:04:00,
2013-06-28 22:09:00,74.3,64.3,29.68,North,0,1.2,1.2,71,0.00,CLR,,0.00,WeatherDisplay:10.37,2013-06-29 02:09:00,
2013-06-28 22:14:00,74.1,64.1,29.68,NNE,22,0.0,0.0,71,0.00,CLR,,0.00,WeatherDisplay:10.37,2013-06-29 02:14:00,
2013-06-28 22:18:00,66.7,24.3,29.62,NW,310,0.0,1.0,20,0.00,CLR,CLR,0.00,WeatherDisplay:10.37,2013-06-29 02:18:00,
2013-06-28 22:19:00,73.9,63.9,29.68,North,0,0.0,0.0,71,0.00,CLR,,0.00,WeatherDisplay:10.37,2013-06-29 02:19:00,
2013-06-28 22:24:00,73.9,63.9,29.68,North,0,0.0,0.0,71,0.00,CLR,,0.00,WeatherDisplay:10.37,2013-06-29 02:24:00,
2013-06-28 22:29:00,73.8,63.8,29.68,North,0,0.0,0.0,71,0.00,CLR,,0.00,WeatherDisplay:10.37,2013-06-29 02:29:00,
2013-06-28 22:33:00,66.0,23.8,29.65,SW,225,0.0,0.0,20,0.00,CLR,CLR,0.00,WeatherDisplay:10.37,2013-06-29 02:33:00,
2013-06-28 22:34:00,73.6,63.6,29.68,North,0,0.0,0.0,71,0.00,CLR,,0.00,WeatherDisplay:10.37,2013-06-29 02:34:00,
2013-06-28 22:39:00,73.6,63.6,29.68,North,0,1.2,0.0,71,0.00,CLR,,0.00,WeatherDisplay:10.37,2013-06-29 02:39:00,
2013-06-28 22:44:00,73.6,63.6,29.68,NNW,338,1.2,1.2,71,0.00,CLR,,0.00,WeatherDisplay:10.37,2013-06-29 02:44:00,
2013-06-28 22:48:00,65.3,23.2,29.68,SW,225,0.0,0.0,20,0.00,CLR,CLR,0.00,WeatherDisplay:10.37,2013-06-29 02:48:00,
2013-06-28 22:49:00,73.4,63.4,29.68,North,0,1.2,0.0,71,0.00,CLR,,0.00,WeatherDisplay:10.37,2013-06-29 02:49:00,
2013-06-28 22:54:00,73.4,63.4,29.68,North,0,2.3,2.3,71,0.00,CLR,,0.00,WeatherDisplay:10.37,2013-06-29 02:54:00,
2013-06-28 22:59:00,73.4,63.4,29.68,North,0,0.0,0.0,71,0.00,CLR,,0.00,WeatherDisplay:10.37,2013-06-29 02:59:00,
2013-06-28 23:03:00,64.6,25.9,29.65,SW,225,0.0,0.0,23,0.00,CLR,CLR,0.00,WeatherDisplay:10.37,2013-06-29 03:03:00,
2013-06-28 23:04:00,73.4,63.4,29.71,NW,315,2.3,2.3,71,0.00,CLR,,0.00,WeatherDisplay:10.37,2013-06-29 03:04:00,
2013-06-28 23:09:00,73.4,63.4,29.71,North,0,1.2,0.0,71,0.00,CLR,,0.00,WeatherDisplay:10.37,2013-06-29 03:09:00,
2013-06-28 23:14:00,73.4,63.4,29.71,NW,315,1.2,0.0,71,0.00,CLR,,0.00,WeatherDisplay:10.37,2013-06-29 03:14:00,
2013-06-28 23:18:00,64.6,25.9,29.65,SSW,198,0.0,1.0,23,0.00,CLR,CLR,0.00,WeatherDisplay:10.37,2013-06-29 03:18:00,
2013-06-28 23:19:00,73.0,63.1,29.71,North,0,1.2,1.2,71,0.00,CLR,,0.00,WeatherDisplay:10.37,2013-06-29 03:19:00,
2013-06-28 23:24:00,72.9,62.9,29.71,North,0,1.2,0.0,71,0.00,CLR,,0.00,WeatherDisplay:10.37,2013-06-29 03:24:00,
2013-06-28 23:33:00,64.6,26.9,29.65,South,180,0.0,1.0,24,0.00,CLR,CLR,0.00,WeatherDisplay:10.37,2013-06-29 03:33:00,
2013-06-28 23:48:00,65.1,28.4,29.65,South,180,0.0,0.0,25,0.00,CLR,CLR,0.00,WeatherDisplay:10.37,2013-06-29 03:48:00,